sensor_id;sensor_type;location;lat;lon;timestamp;pressure;altitude;pressure_sealevel;temperature;humidity
82006;BME280;71529;47.484;19.064;2023-11-21T00:00:23;99961.44;;;9.24;78.34
82006;BME280;71529;47.484;19.064;2023-11-21T00:02:51;99966.66;;;9.35;73.93
82006;BME280;71529;47.484;19.064;2023-11-21T00:05:21;99966.38;;;9.28;73.31
82006;BME280;71529;47.484;19.064;2023-11-21T00:07:50;99960.91;;;9.30;76.92
82006;BME280;71529;47.484;19.064;2023-11-21T00:10:18;99948.28;;;9.32;74.61
82006;BME280;71529;47.484;19.064;2023-11-21T00:12:47;99952.78;;;9.31;75.09
82006;BME280;71529;47.484;19.064;2023-11-21T00:15:15;99951.97;;;9.40;77.15
82006;BME280;71529;47.484;19.064;2023-11-21T00:17:43;99952.09;;;9.39;72.06
82006;BME280;71529;47.484;19.064;2023-11-21T00:20:12;99951.25;;;9.38;73.04
82006;BME280;71529;47.484;19.064;2023-11-21T00:22:42;99958.41;;;9.47;76.90
82006;BME280;71529;47.484;19.064;2023-11-21T00:25:11;99961.22;;;9.46;75.84
82006;BME280;71529;47.484;19.064;2023-11-21T00:27:42;99964.19;;;9.52;74.54
82006;BME280;71529;47.484;19.064;2023-11-21T00:30:11;99966.97;;;9.51;74.49
82006;BME280;71529;47.484;19.064;2023-11-21T00:32:39;99971.75;;;9.47;77.04
82006;BME280;71529;47.484;19.064;2023-11-21T00:35:08;99972.56;;;9.38;73.92
82006;BME280;71529;47.484;19.064;2023-11-21T00:37:37;99979.44;;;9.31;78.57
82006;BME280;71529;47.484;19.064;2023-11-21T00:40:09;99973.53;;;9.28;77.70
82006;BME280;71529;47.484;19.064;2023-11-21T00:42:37;99985.06;;;9.38;75.59
82006;BME280;71529;47.484;19.064;2023-11-21T00:45:07;99985.28;;;9.25;77.09
82006;BME280;71529;47.484;19.064;2023-11-21T00:47:35;99985.28;;;9.25;76.87
82006;BME280;71529;47.484;19.064;2023-11-21T00:50:05;99990.09;;;9.31;77.50
82006;BME280;71529;47.484;19.064;2023-11-21T00:52:34;99988.13;;;9.33;75.25
82006;BME280;71529;47.484;19.064;2023-11-21T00:55:03;99987.84;;;9.36;76.11
82006;BME280;71529;47.484;19.064;2023-11-21T00:57:33;99990.22;;;9.30;75.16
82006;BME280;71529;47.484;19.064;2023-11-21T01:00:01;99989.22;;;9.21;74.07
82006;BME280;71529;47.484;19.064;2023-11-21T01:02:34;99988.53;;;9.19;72.61
82006;BME280;71529;47.484;19.064;2023-11-21T01:05:04;99992.28;;;9.17;72.93
82006;BME280;71529;47.484;19.064;2023-11-21T01:07:34;99978.53;;;9.12;72.26
82006;BME280;71529;47.484;19.064;2023-11-21T01:10:03;99975.88;;;9.12;76.32
82006;BME280;71529;47.484;19.064;2023-11-21T01:12:36;99973.34;;;9.10;75.59
82006;BME280;71529;47.484;19.064;2023-11-21T01:15:06;99973.91;;;9.14;75.08
82006;BME280;71529;47.484;19.064;2023-11-21T01:17:35;99962.97;;;9.07;75.96
82006;BME280;71529;47.484;19.064;2023-11-21T01:20:05;99964.34;;;9.02;75.09
82006;BME280;71529;47.484;19.064;2023-11-21T01:22:38;99956.88;;;8.95;74.59
82006;BME280;71529;47.484;19.064;2023-11-21T01:25:06;99961.13;;;9.08;73.21
82006;BME280;71529;47.484;19.064;2023-11-21T01:27:36;99960.00;;;9.10;74.16
82006;BME280;71529;47.484;19.064;2023-11-21T01:30:06;99964.63;;;8.99;77.07
82006;BME280;71529;47.484;19.064;2023-11-21T01:32:35;99957.06;;;9.04;76.39
82006;BME280;71529;47.484;19.064;2023-11-21T01:35:04;99955.69;;;9.09;77.84
82006;BME280;71529;47.484;19.064;2023-11-21T01:37:33;99957.34;;;9.10;75.41
82006;BME280;71529;47.484;19.064;2023-11-21T01:40:01;99948.94;;;9.15;77.32
82006;BME280;71529;47.484;19.064;2023-11-21T01:42:32;99950.78;;;9.24;78.18
82006;BME280;71529;47.484;19.064;2023-11-21T01:45:03;99944.69;;;9.03;72.50
82006;BME280;71529;47.484;19.064;2023-11-21T01:47:33;99950.22;;;9.11;77.83
82006;BME280;71529;47.484;19.064;2023-11-21T01:50:03;99946.41;;;9.04;74.26
82006;BME280;71529;47.484;19.064;2023-11-21T01:52:34;99944.56;;;9.04;76.94
82006;BME280;71529;47.484;19.064;2023-11-21T01:55:03;99942.16;;;9.01;75.27
82006;BME280;71529;47.484;19.064;2023-11-21T01:57:33;99944.16;;;9.09;77.18
82006;BME280;71529;47.484;19.064;2023-11-21T02:00:04;99940.31;;;8.92;73.23
82006;BME280;71529;47.484;19.064;2023-11-21T02:02:42;99932.38;;;9.02;77.17
82006;BME280;71529;47.484;19.064;2023-11-21T02:05:11;99928.00;;;9.01;74.62
82006;BME280;71529;47.484;19.064;2023-11-21T02:07:40;99925.63;;;8.98;79.68
82006;BME280;71529;47.484;19.064;2023-11-21T02:10:09;99928.31;;;9.07;79.43
82006;BME280;71529;47.484;19.064;2023-11-21T02:12:41;99929.03;;;9.09;77.86
82006;BME280;71529;47.484;19.064;2023-11-21T02:15:12;99920.31;;;9.07;73.85
82006;BME280;71529;47.484;19.064;2023-11-21T02:17:48;99922.72;;;9.10;75.64
82006;BME280;71529;47.484;19.064;2023-11-21T02:20:20;99910.63;;;9.06;79.52
82006;BME280;71529;47.484;19.064;2023-11-21T02:22:55;99922.81;;;8.89;74.33
82006;BME280;71529;47.484;19.064;2023-11-21T02:25:27;99912.28;;;8.88;75.56
82006;BME280;71529;47.484;19.064;2023-11-21T02:27:56;99913.81;;;8.90;76.73
82006;BME280;71529;47.484;19.064;2023-11-21T02:30:25;99914.38;;;8.84;76.34
82006;BME280;71529;47.484;19.064;2023-11-21T02:32:55;99915.53;;;8.91;78.29
82006;BME280;71529;47.484;19.064;2023-11-21T02:35:25;99917.44;;;8.80;79.19
82006;BME280;71529;47.484;19.064;2023-11-21T02:37:55;99902.06;;;8.93;77.78
82006;BME280;71529;47.484;19.064;2023-11-21T02:40:23;99911.00;;;8.92;77.25
82006;BME280;71529;47.484;19.064;2023-11-21T02:42:54;99913.69;;;8.92;76.33
82006;BME280;71529;47.484;19.064;2023-11-21T02:45:25;99910.63;;;8.97;74.57
82006;BME280;71529;47.484;19.064;2023-11-21T02:47:53;99913.81;;;8.90;74.95
82006;BME280;71529;47.484;19.064;2023-11-21T02:50:25;99918.72;;;8.85;75.44
82006;BME280;71529;47.484;19.064;2023-11-21T02:52:55;99916.34;;;8.92;76.82
82006;BME280;71529;47.484;19.064;2023-11-21T02:55:25;99914.09;;;8.87;73.46
82006;BME280;71529;47.484;19.064;2023-11-21T02:57:53;99920.53;;;8.85;73.36
82006;BME280;71529;47.484;19.064;2023-11-21T03:00:23;99909.16;;;8.83;76.37
82006;BME280;71529;47.484;19.064;2023-11-21T03:02:53;99913.19;;;8.68;73.70
82006;BME280;71529;47.484;19.064;2023-11-21T03:05:22;99900.81;;;8.57;75.21
82006;BME280;71529;47.484;19.064;2023-11-21T03:07:50;99905.13;;;8.58;74.26
82006;BME280;71529;47.484;19.064;2023-11-21T03:10:20;99902.09;;;8.63;77.88
82006;BME280;71529;47.484;19.064;2023-11-21T03:12:48;99895.91;;;8.62;77.16
82006;BME280;71529;47.484;19.064;2023-11-21T03:15:17;99884.56;;;8.60;73.74
82006;BME280;71529;47.484;19.064;2023-11-21T03:17:45;99886.19;;;8.52;79.19
82006;BME280;71529;47.484;19.064;2023-11-21T03:20:16;99879.72;;;8.45;75.41
82006;BME280;71529;47.484;19.064;2023-11-21T03:22:44;99880.16;;;8.50;77.62
82006;BME280;71529;47.484;19.064;2023-11-21T03:25:13;99870.81;;;8.55;76.00
82006;BME280;71529;47.484;19.064;2023-11-21T03:27:43;99870.09;;;8.53;79.38
82006;BME280;71529;47.484;19.064;2023-11-21T03:30:11;99873.97;;;8.40;72.85
82006;BME280;71529;47.484;19.064;2023-11-21T03:32:39;99872.16;;;8.40;73.30
82006;BME280;71529;47.484;19.064;2023-11-21T03:35:07;99866.25;;;8.37;75.65
82006;BME280;71529;47.484;19.064;2023-11-21T03:37:36;99862.03;;;8.34;75.93
82006;BME280;71529;47.484;19.064;2023-11-21T03:40:09;99853.88;;;8.66;80.70
82006;BME280;71529;47.484;19.064;2023-11-21T03:42:37;99850.38;;;8.65;75.60
82006;BME280;71529;47.484;19.064;2023-11-21T03:45:08;99841.44;;;8.76;76.02
82006;BME280;71529;47.484;19.064;2023-11-21T03:47:40;99844.84;;;8.87;76.77
82006;BME280;71529;47.484;19.064;2023-11-21T03:50:09;99842.16;;;8.97;75.70
82006;BME280;71529;47.484;19.064;2023-11-21T03:52:37;99844.44;;;9.11;76.37
82006;BME280;71529;47.484;19.064;2023-11-21T03:55:06;99854.41;;;9.19;73.91
82006;BME280;71529;47.484;19.064;2023-11-21T03:57:33;99857.50;;;9.14;73.94
82006;BME280;71529;47.484;19.064;2023-11-21T04:00:03;99858.22;;;9.16;72.06
82006;BME280;71529;47.484;19.064;2023-11-21T04:02:36;99859.34;;;9.23;71.70
82006;BME280;71529;47.484;19.064;2023-11-21T04:05:05;99871.69;;;9.24;75.55
82006;BME280;71529;47.484;19.064;2023-11-21T04:07:34;99862.97;;;9.22;74.12
82006;BME280;71529;47.484;19.064;2023-11-21T04:10:05;99862.28;;;9.30;73.36
82006;BME280;71529;47.484;19.064;2023-11-21T04:12:35;99864.69;;;9.42;71.48
82006;BME280;71529;47.484;19.064;2023-11-21T04:15:04;99874.38;;;9.34;74.40
82006;BME280;71529;47.484;19.064;2023-11-21T04:17:32;99888.94;;;9.30;77.83
82006;BME280;71529;47.484;19.064;2023-11-21T04:20:02;99895.63;;;9.15;75.96
82006;BME280;71529;47.484;19.064;2023-11-21T04:22:32;99900.44;;;9.21;78.14
82006;BME280;71529;47.484;19.064;2023-11-21T04:25:01;99899.97;;;9.06;75.96
82006;BME280;71529;47.484;19.064;2023-11-21T04:27:29;99896.16;;;8.99;75.36
82006;BME280;71529;47.484;19.064;2023-11-21T04:29:57;99886.38;;;9.00;74.28
82006;BME280;71529;47.484;19.064;2023-11-21T04:32:25;99895.03;;;8.92;77.48
82006;BME280;71529;47.484;19.064;2023-11-21T04:34:53;99893.59;;;8.78;73.95
82006;BME280;71529;47.484;19.064;2023-11-21T04:37:23;99896.25;;;8.78;73.92
82006;BME280;71529;47.484;19.064;2023-11-21T04:39:52;99893.75;;;8.86;76.40
82006;BME280;71529;47.484;19.064;2023-11-21T04:42:20;99894.31;;;8.90;74.87
82006;BME280;71529;47.484;19.064;2023-11-21T04:44:48;99891.69;;;9.00;74.95
82006;BME280;71529;47.484;19.064;2023-11-21T04:47:17;99893.75;;;8.86;75.57
82006;BME280;71529;47.484;19.064;2023-11-21T04:49:46;99903.59;;;8.86;73.60
82006;BME280;71529;47.484;19.064;2023-11-21T04:52:14;99910.72;;;8.85;75.61
82006;BME280;71529;47.484;19.064;2023-11-21T04:54:44;99916.47;;;8.90;79.34
82006;BME280;71529;47.484;19.064;2023-11-21T04:57:12;99917.91;;;8.94;77.94
82006;BME280;71529;47.484;19.064;2023-11-21T04:59:41;99920.38;;;8.86;76.91
82006;BME280;71529;47.484;19.064;2023-11-21T05:02:10;99921.31;;;8.76;75.23
82006;BME280;71529;47.484;19.064;2023-11-21T05:04:59;99928.63;;;8.74;75.77
82006;BME280;71529;47.484;19.064;2023-11-21T05:07:27;99924.34;;;8.62;76.74
82006;BME280;71529;47.484;19.064;2023-11-21T05:10:00;99931.66;;;8.60;75.01
82006;BME280;71529;47.484;19.064;2023-11-21T05:12:31;99927.38;;;8.78;77.55
82006;BME280;71529;47.484;19.064;2023-11-21T05:15:01;99931.97;;;8.76;79.08
82006;BME280;71529;47.484;19.064;2023-11-21T05:17:34;99930.88;;;8.78;77.23
82006;BME280;71529;47.484;19.064;2023-11-21T05:20:03;99932.47;;;8.90;79.03
82006;BME280;71529;47.484;19.064;2023-11-21T05:22:35;99916.78;;;8.97;75.19
82006;BME280;71529;47.484;19.064;2023-11-21T05:25:06;99919.34;;;9.08;74.46
82006;BME280;71529;47.484;19.064;2023-11-21T05:27:35;99902.00;;;9.23;77.15
82006;BME280;71529;47.484;19.064;2023-11-21T05:30:04;99908.41;;;9.21;76.06
82006;BME280;71529;47.484;19.064;2023-11-21T05:32:33;99905.06;;;9.28;73.44
82006;BME280;71529;47.484;19.064;2023-11-21T05:35:02;99914.28;;;9.15;74.10
82006;BME280;71529;47.484;19.064;2023-11-21T05:37:31;99924.38;;;9.11;75.31
82006;BME280;71529;47.484;19.064;2023-11-21T05:39:59;99927.56;;;8.95;77.54
82006;BME280;71529;47.484;19.064;2023-11-21T05:42:36;99919.56;;;8.95;75.42
82006;BME280;71529;47.484;19.064;2023-11-21T05:45:05;99920.84;;;8.91;76.77
82006;BME280;71529;47.484;19.064;2023-11-21T05:47:40;99913.91;;;8.79;77.56
82006;BME280;71529;47.484;19.064;2023-11-21T05:50:10;99913.19;;;8.68;74.04
82006;BME280;71529;47.484;19.064;2023-11-21T05:52:42;99914.63;;;8.81;79.91
82006;BME280;71529;47.484;19.064;2023-11-21T05:55:10;99920.09;;;8.80;76.54
82006;BME280;71529;47.484;19.064;2023-11-21T05:57:42;99924.03;;;8.85;74.42
82006;BME280;71529;47.484;19.064;2023-11-21T06:00:13;99930.44;;;8.73;75.08
82006;BME280;71529;47.484;19.064;2023-11-21T06:02:46;99935.78;;;8.73;75.03
82006;BME280;71529;47.484;19.064;2023-11-21T06:05:14;99945.50;;;8.84;77.60
82006;BME280;71529;47.484;19.064;2023-11-21T06:07:42;99959.38;;;8.87;75.74
82006;BME280;71529;47.484;19.064;2023-11-21T06:10:11;99957.44;;;8.89;75.59
82006;BME280;71529;47.484;19.064;2023-11-21T06:12:43;99965.22;;;8.81;78.12
82006;BME280;71529;47.484;19.064;2023-11-21T06:15:12;99960.91;;;8.80;75.28
82006;BME280;71529;47.484;19.064;2023-11-21T06:17:41;99965.94;;;8.83;75.54
82006;BME280;71529;47.484;19.064;2023-11-21T06:20:11;99981.75;;;8.75;75.42
82006;BME280;71529;47.484;19.064;2023-11-21T06:22:42;99971.69;;;8.79;75.67
82006;BME280;71529;47.484;19.064;2023-11-21T06:25:12;99969.84;;;8.79;74.09
82006;BME280;71529;47.484;19.064;2023-11-21T06:27:43;99983.34;;;8.87;79.84
82006;BME280;71529;47.484;19.064;2023-11-21T06:30:13;99987.31;;;8.93;74.31
82006;BME280;71529;47.484;19.064;2023-11-21T06:32:42;100001.72;;;8.90;77.12
82006;BME280;71529;47.484;19.064;2023-11-21T06:35:13;100002.00;;;8.87;75.43
82006;BME280;71529;47.484;19.064;2023-11-21T06:37:43;100014.59;;;8.85;77.03
82006;BME280;71529;47.484;19.064;2023-11-21T06:40:15;100005.03;;;8.83;75.25
82006;BME280;71529;47.484;19.064;2023-11-21T06:42:47;100013.88;;;8.83;78.57
82006;BME280;71529;47.484;19.064;2023-11-21T06:45:16;100010.00;;;8.87;77.25
82006;BME280;71529;47.484;19.064;2023-11-21T06:47:44;100010.72;;;8.89;77.08
82006;BME280;71529;47.484;19.064;2023-11-21T06:50:13;100017.41;;;8.84;77.48
82006;BME280;71529;47.484;19.064;2023-11-21T06:52:42;100022.03;;;8.82;76.20
82006;BME280;71529;47.484;19.064;2023-11-21T06:55:11;100020.06;;;8.84;78.20
82006;BME280;71529;47.484;19.064;2023-11-21T06:57:39;100014.91;;;8.92;75.44
82006;BME280;71529;47.484;19.064;2023-11-21T07:00:10;100018.72;;;8.99;77.20
82006;BME280;71529;47.484;19.064;2023-11-21T07:02:39;100020.00;;;8.95;76.44
82006;BME280;71529;47.484;19.064;2023-11-21T07:05:08;100020.38;;;8.90;75.43
82006;BME280;71529;47.484;19.064;2023-11-21T07:07:36;100025.84;;;8.89;75.30
82006;BME280;71529;47.484;19.064;2023-11-21T07:10:06;100032.16;;;8.88;75.47
82006;BME280;71529;47.484;19.064;2023-11-21T07:12:36;100032.59;;;8.93;78.08
82006;BME280;71529;47.484;19.064;2023-11-21T07:15:05;100042.00;;;8.97;77.23
82006;BME280;71529;47.484;19.064;2023-11-21T07:17:38;100035.69;;;8.98;75.08
82006;BME280;71529;47.484;19.064;2023-11-21T07:20:08;100032.38;;;9.06;76.38
82006;BME280;71529;47.484;19.064;2023-11-21T07:22:38;100040.94;;;9.09;73.91
82006;BME280;71529;47.484;19.064;2023-11-21T07:25:07;100047.53;;;9.15;74.50
82006;BME280;71529;47.484;19.064;2023-11-21T07:27:36;100038.16;;;9.11;73.64
82006;BME280;71529;47.484;19.064;2023-11-21T07:30:05;100025.25;;;9.16;73.52
82006;BME280;71529;47.484;19.064;2023-11-21T07:32:35;100028.06;;;9.14;74.20
82006;BME280;71529;47.484;19.064;2023-11-21T07:35:09;100022.75;;;9.24;76.47
82006;BME280;71529;47.484;19.064;2023-11-21T07:37:37;100023.31;;;9.27;73.56
82006;BME280;71529;47.484;19.064;2023-11-21T07:40:06;100030.38;;;9.38;74.30
82006;BME280;71529;47.484;19.064;2023-11-21T07:42:37;100025.47;;;9.43;75.07
82006;BME280;71529;47.484;19.064;2023-11-21T07:45:06;100034.88;;;9.47;73.27
82006;BME280;71529;47.484;19.064;2023-11-21T07:47:35;100036.31;;;9.51;71.21
82006;BME280;71529;47.484;19.064;2023-11-21T07:50:04;100029.41;;;9.48;72.48
82006;BME280;71529;47.484;19.064;2023-11-21T07:52:35;100031.69;;;9.62;72.69
82006;BME280;71529;47.484;19.064;2023-11-21T07:55:04;100032.44;;;9.74;73.65
82006;BME280;71529;47.484;19.064;2023-11-21T07:57:34;100039.44;;;9.75;71.46
82006;BME280;71529;47.484;19.064;2023-11-21T08:00:03;100029.75;;;9.64;70.50
82006;BME280;71529;47.484;19.064;2023-11-21T08:02:33;100029.75;;;9.64;73.80
82006;BME280;71529;47.484;19.064;2023-11-21T08:05:02;100024.25;;;9.66;71.68
82006;BME280;71529;47.484;19.064;2023-11-21T08:07:31;100027.81;;;9.76;71.42
82006;BME280;71529;47.484;19.064;2023-11-21T08:10:01;100016.56;;;9.72;74.06
82006;BME280;71529;47.484;19.064;2023-11-21T08:12:31;100022.91;;;9.81;73.25
82006;BME280;71529;47.484;19.064;2023-11-21T08:14:59;100017.41;;;9.82;74.68
82006;BME280;71529;47.484;19.064;2023-11-21T08:17:29;100024.84;;;9.88;69.51
82006;BME280;71529;47.484;19.064;2023-11-21T08:20:00;100029.63;;;9.85;71.35
82006;BME280;71529;47.484;19.064;2023-11-21T08:22:37;100026.13;;;9.84;70.41
82006;BME280;71529;47.484;19.064;2023-11-21T08:25:09;100018.69;;;9.88;70.53
82006;BME280;71529;47.484;19.064;2023-11-21T08:27:38;100013.94;;;9.91;71.12
82006;BME280;71529;47.484;19.064;2023-11-21T08:30:07;100007.44;;;9.94;69.33
82006;BME280;71529;47.484;19.064;2023-11-21T08:32:35;100010.69;;;9.97;72.64
82006;BME280;71529;47.484;19.064;2023-11-21T08:35:04;100017.13;;;10.04;69.05
82006;BME280;71529;47.484;19.064;2023-11-21T08:37:33;100009.28;;;9.93;71.72
82006;BME280;71529;47.484;19.064;2023-11-21T08:40:05;100012.63;;;9.95;71.37
82006;BME280;71529;47.484;19.064;2023-11-21T08:42:37;100009.28;;;10.03;71.35
82006;BME280;71529;47.484;19.064;2023-11-21T08:45:06;100004.09;;;10.21;72.44
82006;BME280;71529;47.484;19.064;2023-11-21T08:47:36;100006.50;;;10.14;69.65
82006;BME280;71529;47.484;19.064;2023-11-21T08:50:05;100009.03;;;10.16;69.79
82006;BME280;71529;47.484;19.064;2023-11-21T08:52:35;100004.97;;;10.21;70.58
82006;BME280;71529;47.484;19.064;2023-11-21T08:55:05;100003.00;;;10.14;69.21
82006;BME280;71529;47.484;19.064;2023-11-21T08:57:35;100009.75;;;10.18;68.89
82006;BME280;71529;47.484;19.064;2023-11-21T09:00:06;100014.22;;;10.27;69.25
82006;BME280;71529;47.484;19.064;2023-11-21T09:02:39;100013.38;;;10.26;69.07
82006;BME280;71529;47.484;19.064;2023-11-21T09:05:10;100016.59;;;10.30;70.76
82006;BME280;71529;47.484;19.064;2023-11-21T09:07:39;100018.44;;;10.29;71.09
82006;BME280;71529;47.484;19.064;2023-11-21T09:10:08;100020.53;;;10.26;70.04
82006;BME280;71529;47.484;19.064;2023-11-21T09:12:37;100021.53;;;10.25;69.96
82006;BME280;71529;47.484;19.064;2023-11-21T09:15:08;100015.91;;;10.37;70.90
82006;BME280;71529;47.484;19.064;2023-11-21T09:17:38;100012.25;;;10.48;72.07
82006;BME280;71529;47.484;19.064;2023-11-21T09:20:07;100011.50;;;10.55;72.31
82006;BME280;71529;47.484;19.064;2023-11-21T09:22:38;100010.69;;;10.55;68.73
82006;BME280;71529;47.484;19.064;2023-11-21T09:25:07;99996.06;;;10.49;68.70
82006;BME280;71529;47.484;19.064;2023-11-21T09:27:36;99996.91;;;10.31;71.74
82006;BME280;71529;47.484;19.064;2023-11-21T09:30:07;99995.38;;;10.38;71.35
82006;BME280;71529;47.484;19.064;2023-11-21T09:32:37;99986.09;;;10.32;71.68
82006;BME280;71529;47.484;19.064;2023-11-21T09:35:08;99983.31;;;10.34;71.29
82006;BME280;71529;47.484;19.064;2023-11-21T09:37:37;99984.72;;;10.28;70.57
82006;BME280;71529;47.484;19.064;2023-11-21T09:40:10;99980.91;;;10.40;70.73
82006;BME280;71529;47.484;19.064;2023-11-21T09:42:43;99976.41;;;10.31;71.66
82006;BME280;71529;47.484;19.064;2023-11-21T09:45:23;99970.22;;;10.31;69.74
82006;BME280;71529;47.484;19.064;2023-11-21T09:47:53;99967.25;;;10.43;69.32
82006;BME280;71529;47.484;19.064;2023-11-21T09:50:23;99972.75;;;10.32;69.64
82006;BME280;71529;47.484;19.064;2023-11-21T09:53:04;99971.38;;;10.28;70.94
82006;BME280;71529;47.484;19.064;2023-11-21T09:55:38;99967.84;;;10.37;70.47
82006;BME280;71529;47.484;19.064;2023-11-21T09:58:08;99970.06;;;10.42;71.38
82006;BME280;71529;47.484;19.064;2023-11-21T10:00:42;99977.22;;;10.41;71.05
82006;BME280;71529;47.484;19.064;2023-11-21T10:03:11;99971.88;;;10.51;71.95
82006;BME280;71529;47.484;19.064;2023-11-21T10:05:41;99960.34;;;10.50;70.48
82006;BME280;71529;47.484;19.064;2023-11-21T10:08:11;99952.59;;;10.57;71.21
82006;BME280;71529;47.484;19.064;2023-11-21T10:10:46;99956.00;;;10.49;71.67
82006;BME280;71529;47.484;19.064;2023-11-21T10:13:15;99949.81;;;10.49;71.10
82006;BME280;71529;47.484;19.064;2023-11-21T10:15:50;99952.94;;;10.44;70.08
82006;BME280;71529;47.484;19.064;2023-11-21T10:18:20;99955.72;;;10.52;69.79
82006;BME280;71529;47.484;19.064;2023-11-21T10:20:52;99955.00;;;10.60;70.31
82006;BME280;71529;47.484;19.064;2023-11-21T10:23:21;99944.47;;;10.58;70.35
82006;BME280;71529;47.484;19.064;2023-11-21T10:25:51;99942.44;;;10.60;68.47
82006;BME280;71529;47.484;19.064;2023-11-21T10:28:21;99940.63;;;10.61;70.34
82006;BME280;71529;47.484;19.064;2023-11-21T10:30:51;99945.44;;;10.57;70.49
82006;BME280;71529;47.484;19.064;2023-11-21T10:33:27;99946.47;;;10.37;71.93
82006;BME280;71529;47.484;19.064;2023-11-21T10:35:56;99945.63;;;10.27;71.26
82006;BME280;71529;47.484;19.064;2023-11-21T10:38:25;99941.41;;;10.44;71.12
82006;BME280;71529;47.484;19.064;2023-11-21T10:40:55;99944.06;;;10.44;70.29
82006;BME280;71529;47.484;19.064;2023-11-21T10:43:25;99938.97;;;10.50;72.79
82006;BME280;71529;47.484;19.064;2023-11-21T10:45:57;99942.19;;;10.54;71.16
82006;BME280;71529;47.484;19.064;2023-11-21T10:48:26;99945.88;;;10.43;70.53
82006;BME280;71529;47.484;19.064;2023-11-21T10:50:54;99942.66;;;10.40;69.70
82006;BME280;71529;47.484;19.064;2023-11-21T10:53:23;99939.28;;;10.47;74.80
82006;BME280;71529;47.484;19.064;2023-11-21T10:56:01;99951.78;;;10.47;70.97
82006;BME280;71529;47.484;19.064;2023-11-21T10:58:30;99942.59;;;10.59;72.53
82006;BME280;71529;47.484;19.064;2023-11-21T11:01:02;99947.22;;;10.66;70.46
82006;BME280;71529;47.484;19.064;2023-11-21T11:03:32;99942.75;;;10.57;70.08
82006;BME280;71529;47.484;19.064;2023-11-21T11:06:02;99937.94;;;10.70;71.71
82006;BME280;71529;47.484;19.064;2023-11-21T11:08:31;99933.63;;;10.60;70.28
82006;BME280;71529;47.484;19.064;2023-11-21T11:11:00;99938.22;;;10.67;71.76
82006;BME280;71529;47.484;19.064;2023-11-21T11:13:28;99937.94;;;10.70;72.17
82006;BME280;71529;47.484;19.064;2023-11-21T11:15:58;99932.44;;;10.72;70.67
82006;BME280;71529;47.484;19.064;2023-11-21T11:18:30;99936.25;;;10.69;70.53
82006;BME280;71529;47.484;19.064;2023-11-21T11:21:07;99932.00;;;10.76;69.79
82006;BME280;71529;47.484;19.064;2023-11-21T11:23:46;99925.56;;;10.69;68.95
82006;BME280;71529;47.484;19.064;2023-11-21T11:26:28;99927.81;;;10.64;68.43
82006;BME280;71529;47.484;19.064;2023-11-21T11:29:08;99926.41;;;10.70;70.16
82006;BME280;71529;47.484;19.064;2023-11-21T11:31:52;99924.06;;;10.57;68.61
82006;BME280;71529;47.484;19.064;2023-11-21T11:34:28;99921.22;;;10.59;71.48
82006;BME280;71529;47.484;19.064;2023-11-21T11:37:01;99915.16;;;10.66;68.95
82006;BME280;71529;47.484;19.064;2023-11-21T11:39:35;99916.44;;;10.62;72.62
82006;BME280;71529;47.484;19.064;2023-11-21T11:42:06;99907.69;;;10.70;70.68
82006;BME280;71529;47.484;19.064;2023-11-21T11:44:47;99905.81;;;10.53;69.47
82006;BME280;71529;47.484;19.064;2023-11-21T11:47:21;99912.97;;;10.52;70.42
82006;BME280;71529;47.484;19.064;2023-11-21T11:50:03;99909.28;;;10.63;71.81
82006;BME280;71529;47.484;19.064;2023-11-21T11:52:38;99906.75;;;10.61;69.58
82006;BME280;71529;47.484;19.064;2023-11-21T11:55:09;99908.56;;;10.61;69.82
82006;BME280;71529;47.484;19.064;2023-11-21T11:57:41;99897.59;;;10.64;70.44
82006;BME280;71529;47.484;19.064;2023-11-21T12:00:15;99901.81;;;10.66;70.24
82006;BME280;71529;47.484;19.064;2023-11-21T12:02:48;99892.38;;;10.72;71.84
82006;BME280;71529;47.484;19.064;2023-11-21T12:05:19;99901.66;;;10.68;69.08
82006;BME280;71529;47.484;19.064;2023-11-21T12:07:51;99892.38;;;10.72;69.01
82006;BME280;71529;47.484;19.064;2023-11-21T12:10:23;99888.16;;;10.69;68.19
82006;BME280;71529;47.484;19.064;2023-11-21T12:12:54;99893.41;;;10.61;69.58
82006;BME280;71529;47.484;19.064;2023-11-21T12:15:22;99888.16;;;10.69;72.18
82006;BME280;71529;47.484;19.064;2023-11-21T12:17:52;99898.44;;;10.64;68.50
82006;BME280;71529;47.484;19.064;2023-11-21T12:20:23;99900.00;;;10.67;67.44
82006;BME280;71529;47.484;19.064;2023-11-21T12:22:53;99903.06;;;10.72;68.71
82006;BME280;71529;47.484;19.064;2023-11-21T12:25:23;99884.91;;;10.75;69.69
82006;BME280;71529;47.484;19.064;2023-11-21T12:27:52;99889.16;;;10.68;67.73
82006;BME280;71529;47.484;19.064;2023-11-21T12:30:23;99893.50;;;10.69;69.99
82006;BME280;71529;47.484;19.064;2023-11-21T12:32:53;99883.34;;;10.73;72.99
82006;BME280;71529;47.484;19.064;2023-11-21T12:35:25;99880.69;;;10.73;69.66
82006;BME280;71529;47.484;19.064;2023-11-21T12:37:55;99879.25;;;10.78;70.33
82006;BME280;71529;47.484;19.064;2023-11-21T12:40:24;99879.50;;;10.85;67.48
82006;BME280;71529;47.484;19.064;2023-11-21T12:42:54;99876.44;;;10.80;70.29
82006;BME280;71529;47.484;19.064;2023-11-21T12:45:23;99874.53;;;10.72;70.38
82006;BME280;71529;47.484;19.064;2023-11-21T12:47:55;99877.59;;;10.77;70.59
82006;BME280;71529;47.484;19.064;2023-11-21T12:50:26;99881.53;;;10.73;70.57
82006;BME280;71529;47.484;19.064;2023-11-21T12:53:00;99884.91;;;10.75;70.51
82006;BME280;71529;47.484;19.064;2023-11-21T12:55:30;99871.25;;;10.78;69.93
82006;BME280;71529;47.484;19.064;2023-11-21T12:58:01;99871.25;;;10.78;69.17
82006;BME280;71529;47.484;19.064;2023-11-21T13:00:39;99880.97;;;10.79;69.00
82006;BME280;71529;47.484;19.064;2023-11-21T13:03:11;99874.06;;;10.77;71.04
82006;BME280;71529;47.484;19.064;2023-11-21T13:05:47;99870.81;;;10.83;70.32
82006;BME280;71529;47.484;19.064;2023-11-21T13:08:20;99884.28;;;10.81;70.54
82006;BME280;71529;47.484;19.064;2023-11-21T13:10:52;99881.88;;;10.88;70.10